sensor_id;sensor_type;location;lat;lon;timestamp;pressure;altitude;pressure_sealevel;temperature;humidity
25947;BME280;13745;51.470;9.894;2022-08-03T00:00:37;99508.41;;;21.20;54.18
25947;BME280;13745;51.470;9.894;2022-08-03T00:03:24;99509.03;;;21.14;54.28
25947;BME280;13745;51.470;9.894;2022-08-03T00:06:10;99512.81;;;21.06;54.27
25947;BME280;13745;51.470;9.894;2022-08-03T00:08:56;99508.72;;;21.00;54.44
25947;BME280;13745;51.470;9.894;2022-08-03T00:11:42;99511.81;;;20.99;54.45
25947;BME280;13745;51.470;9.894;2022-08-03T00:14:28;99519.66;;;20.97;54.46
25947;BME280;13745;51.470;9.894;2022-08-03T00:17:14;99507.41;;;20.94;54.45
25947;BME280;13745;51.470;9.894;2022-08-03T00:20:01;99513.34;;;20.96;54.58
25947;BME280;13745;51.470;9.894;2022-08-03T00:22:47;99508.19;;;20.95;54.52
25947;BME280;13745;51.470;9.894;2022-08-03T00:25:34;99507.78;;;20.93;54.84
25947;BME280;13745;51.470;9.894;2022-08-03T00:28:20;99508.63;;;20.97;54.62
25947;BME280;13745;51.470;9.894;2022-08-03T00:31:06;99506.69;;;20.97;54.63
25947;BME280;13745;51.470;9.894;2022-08-03T00:33:52;99504.28;;;20.96;54.83
25947;BME280;13745;51.470;9.894;2022-08-03T00:36:39;99510.53;;;20.93;54.93
25947;BME280;13745;51.470;9.894;2022-08-03T00:39:25;99507.31;;;20.91;55.13
25947;BME280;13745;51.470;9.894;2022-08-03T00:42:11;99506.44;;;20.87;55.16
25947;BME280;13745;51.470;9.894;2022-08-03T00:44:58;99499.63;;;20.81;55.28
25947;BME280;13745;51.470;9.894;2022-08-03T00:47:44;99501.94;;;20.79;55.37
25947;BME280;13745;51.470;9.894;2022-08-03T00:50:31;99498.72;;;20.77;55.52
25947;BME280;13745;51.470;9.894;2022-08-03T00:53:19;99497.84;;;20.73;55.57
25947;BME280;13745;51.470;9.894;2022-08-03T00:56:05;99496.97;;;20.69;55.58
25947;BME280;13745;51.470;9.894;2022-08-03T00:58:55;99502.91;;;20.71;55.72
25947;BME280;13745;51.470;9.894;2022-08-03T01:01:42;99491.47;;;20.69;55.66
25947;BME280;13745;51.470;9.894;2022-08-03T01:04:27;99496.53;;;20.67;55.88
25947;BME280;13745;51.470;9.894;2022-08-03T01:07:17;99493.78;;;20.67;55.82
25947;BME280;13745;51.470;9.894;2022-08-03T01:10:12;99488.97;;;20.64;55.99
25947;BME280;13745;51.470;9.894;2022-08-03T01:13:03;99489.69;;;20.62;56.14
25947;BME280;13745;51.470;9.894;2022-08-03T01:15:59;99489.97;;;20.57;56.32
25947;BME280;13745;51.470;9.894;2022-08-03T01:18:51;99489.78;;;20.50;56.45
25947;BME280;13745;51.470;9.894;2022-08-03T01:21:51;99494.78;;;20.44;56.57
25947;BME280;13745;51.470;9.894;2022-08-03T01:24:49;99493.75;;;20.37;56.79
25947;BME280;13745;51.470;9.894;2022-08-03T01:27:50;99496.41;;;20.34;56.96
25947;BME280;13745;51.470;9.894;2022-08-03T01:30:42;99493.47;;;20.27;56.86
25947;BME280;13745;51.470;9.894;2022-08-03T01:33:35;99488.34;;;20.25;57.09
25947;BME280;13745;51.470;9.894;2022-08-03T01:36:23;99488.59;;;20.20;57.06
25947;BME280;13745;51.470;9.894;2022-08-03T01:39:11;99493.91;;;20.14;57.31
25947;BME280;13745;51.470;9.894;2022-08-03T01:41:58;99486.81;;;20.13;57.27
25947;BME280;13745;51.470;9.894;2022-08-03T01:44:51;99479.72;;;20.12;57.39
25947;BME280;13745;51.470;9.894;2022-08-03T01:47:40;99478.56;;;20.13;57.39
25947;BME280;13745;51.470;9.894;2022-08-03T01:50:28;99484.06;;;20.13;57.25
25947;BME280;13745;51.470;9.894;2022-08-03T01:53:15;99484.78;;;20.10;57.39
25947;BME280;13745;51.470;9.894;2022-08-03T01:56:03;99481.16;;;20.06;57.52
25947;BME280;13745;51.470;9.894;2022-08-03T01:58:51;99483.09;;;20.05;57.51
25947;BME280;13745;51.470;9.894;2022-08-03T02:01:39;99482.53;;;20.00;57.76
25947;BME280;13745;51.470;9.894;2022-08-03T02:04:27;99476.16;;;19.96;57.78
25947;BME280;13745;51.470;9.894;2022-08-03T02:07:14;99478.84;;;19.93;57.76
25947;BME280;13745;51.470;9.894;2022-08-03T02:10:02;99479.97;;;19.92;57.93
25947;BME280;13745;51.470;9.894;2022-08-03T02:12:48;99472.78;;;19.87;57.96
25947;BME280;13745;51.470;9.894;2022-08-03T02:15:36;99489.72;;;19.89;57.97
25947;BME280;13745;51.470;9.894;2022-08-03T02:18:23;99480.56;;;19.85;58.05
25947;BME280;13745;51.470;9.894;2022-08-03T02:21:12;99483.59;;;19.80;58.25
25947;BME280;13745;51.470;9.894;2022-08-03T02:23:58;99488.53;;;19.75;58.42
25947;BME280;13745;51.470;9.894;2022-08-03T02:26:44;99479.84;;;19.73;58.47
25947;BME280;13745;51.470;9.894;2022-08-03T02:29:32;99476.28;;;19.73;58.59
25947;BME280;13745;51.470;9.894;2022-08-03T02:32:24;99480.19;;;19.72;58.63
25947;BME280;13745;51.470;9.894;2022-08-03T02:35:15;99480.56;;;19.70;58.48
25947;BME280;13745;51.470;9.894;2022-08-03T02:38:07;99484.09;;;19.71;58.49
25947;BME280;13745;51.470;9.894;2022-08-03T02:40:54;99472.22;;;19.67;58.64
25947;BME280;13745;51.470;9.894;2022-08-03T02:43:42;99479.06;;;19.61;58.71
25947;BME280;13745;51.470;9.894;2022-08-03T02:46:32;99471.09;;;19.56;58.82
25947;BME280;13745;51.470;9.894;2022-08-03T02:49:23;99471.31;;;19.51;58.97
25947;BME280;13745;51.470;9.894;2022-08-03T02:52:10;99467.69;;;19.47;59.03
25947;BME280;13745;51.470;9.894;2022-08-03T02:54:59;99466.53;;;19.48;59.11
25947;BME280;13745;51.470;9.894;2022-08-03T02:57:47;99464.03;;;19.43;59.12
25947;BME280;13745;51.470;9.894;2022-08-03T03:00:34;99469.91;;;19.42;59.16
25947;BME280;13745;51.470;9.894;2022-08-03T03:03:21;99469.41;;;19.40;59.36
25947;BME280;13745;51.470;9.894;2022-08-03T03:06:08;99476.41;;;19.37;59.43
25947;BME280;13745;51.470;9.894;2022-08-03T03:08:55;99473.22;;;19.35;59.47
25947;BME280;13745;51.470;9.894;2022-08-03T03:11:43;99455.50;;;19.33;59.40
25947;BME280;13745;51.470;9.894;2022-08-03T03:14:30;99469.47;;;19.28;59.48
25947;BME280;13745;51.470;9.894;2022-08-03T03:17:17;99465.03;;;19.24;59.54
25947;BME280;13745;51.470;9.894;2022-08-03T03:20:05;99470.06;;;19.22;59.61
25947;BME280;13745;51.470;9.894;2022-08-03T03:22:52;99473.53;;;19.19;59.69
25947;BME280;13745;51.470;9.894;2022-08-03T03:25:39;99476.97;;;19.16;59.69
25947;BME280;13745;51.470;9.894;2022-08-03T03:28:29;99473.06;;;19.17;59.78
25947;BME280;13745;51.470;9.894;2022-08-03T03:31:16;99487.13;;;19.15;59.88
25947;BME280;13745;51.470;9.894;2022-08-03T03:34:02;99483.13;;;19.13;59.69
25947;BME280;13745;51.470;9.894;2022-08-03T03:36:48;99485.44;;;19.11;59.86
25947;BME280;13745;51.470;9.894;2022-08-03T03:39:34;99481.44;;;19.08;59.82
25947;BME280;13745;51.470;9.894;2022-08-03T03:42:21;99483.38;;;19.08;60.20
25947;BME280;13745;51.470;9.894;2022-08-03T03:45:10;99486.13;;;19.08;60.07
25947;BME280;13745;51.470;9.894;2022-08-03T03:47:58;99473.66;;;19.10;59.99
25947;BME280;13745;51.470;9.894;2022-08-03T03:50:44;99477.63;;;19.13;59.80
25947;BME280;13745;51.470;9.894;2022-08-03T03:53:30;99485.19;;;19.16;59.95
25947;BME280;13745;51.470;9.894;2022-08-03T03:56:16;99475.34;;;19.15;59.89
25947;BME280;13745;51.470;9.894;2022-08-03T03:59:02;99474.09;;;19.12;60.16
25947;BME280;13745;51.470;9.894;2022-08-03T04:01:50;99476.75;;;19.09;60.06
25947;BME280;13745;51.470;9.894;2022-08-03T04:04:36;99482.94;;;19.06;60.22
25947;BME280;13745;51.470;9.894;2022-08-03T04:07:45;99481.00;;;19.07;60.25
25947;BME280;13745;51.470;9.894;2022-08-03T04:10:58;99479.84;;;19.07;60.20
25947;BME280;13745;51.470;9.894;2022-08-03T04:13:48;99483.81;;;19.10;60.08
25947;BME280;13745;51.470;9.894;2022-08-03T04:16:38;99486.22;;;19.11;60.18
25947;BME280;13745;51.470;9.894;2022-08-03T04:19:30;99491.38;;;19.13;60.25
25947;BME280;13745;51.470;9.894;2022-08-03T04:22:18;99490.91;;;19.11;60.33
25947;BME280;13745;51.470;9.894;2022-08-03T04:25:08;99492.50;;;19.12;60.52
25947;BME280;13745;51.470;9.894;2022-08-03T04:27:55;99493.66;;;19.11;60.43
25947;BME280;13745;51.470;9.894;2022-08-03T04:30:44;99492.50;;;19.12;60.47
25947;BME280;13745;51.470;9.894;2022-08-03T04:33:34;99502.78;;;19.15;60.41
25947;BME280;13745;51.470;9.894;2022-08-03T04:36:24;99496.63;;;19.18;60.44
25947;BME280;13745;51.470;9.894;2022-08-03T04:39:13;99503.72;;;19.19;60.50
25947;BME280;13745;51.470;9.894;2022-08-03T04:42:02;99507.81;;;19.25;60.39
25947;BME280;13745;51.470;9.894;2022-08-03T04:44:50;99514.22;;;19.29;60.43
25947;BME280;13745;51.470;9.894;2022-08-03T04:47:37;99508.47;;;19.33;60.39
25947;BME280;13745;51.470;9.894;2022-08-03T04:50:24;99512.13;;;19.37;60.56
25947;BME280;13745;51.470;9.894;2022-08-03T04:53:24;99513.13;;;19.45;60.45
25947;BME280;13745;51.470;9.894;2022-08-03T04:56:10;99521.91;;;19.50;60.68
25947;BME280;13745;51.470;9.894;2022-08-03T04:58:56;99515.03;;;19.56;60.68
25947;BME280;13745;51.470;9.894;2022-08-03T05:01:42;99514.44;;;19.62;60.62
25947;BME280;13745;51.470;9.894;2022-08-03T05:04:28;99514.31;;;19.71;60.87
25947;BME280;13745;51.470;9.894;2022-08-03T05:07:15;99510.16;;;19.76;60.80
25947;BME280;13745;51.470;9.894;2022-08-03T05:10:05;99515.06;;;19.83;60.82
25947;BME280;13745;51.470;9.894;2022-08-03T05:12:51;99519.84;;;19.86;60.79
25947;BME280;13745;51.470;9.894;2022-08-03T05:15:37;99519.94;;;19.89;61.05
25947;BME280;13745;51.470;9.894;2022-08-03T05:18:23;99523.63;;;19.93;61.09
25947;BME280;13745;51.470;9.894;2022-08-03T05:21:09;99506.84;;;19.98;60.89
25947;BME280;13745;51.470;9.894;2022-08-03T05:23:57;99514.16;;;20.06;60.83
25947;BME280;13745;51.470;9.894;2022-08-03T05:26:44;99515.13;;;20.13;60.94
25947;BME280;13745;51.470;9.894;2022-08-03T05:29:30;99504.31;;;20.20;60.85
25947;BME280;13745;51.470;9.894;2022-08-03T05:32:16;99502.09;;;20.25;60.92
25947;BME280;13745;51.470;9.894;2022-08-03T05:35:03;99515.31;;;20.35;60.59
25947;BME280;13745;51.470;9.894;2022-08-03T05:37:49;99508.16;;;20.46;60.50
25947;BME280;13745;51.470;9.894;2022-08-03T05:40:35;99515.91;;;20.56;60.18
25947;BME280;13745;51.470;9.894;2022-08-03T05:43:22;99510.97;;;20.64;60.11
25947;BME280;13745;51.470;9.894;2022-08-03T05:46:08;99513.19;;;20.74;59.79
25947;BME280;13745;51.470;9.894;2022-08-03T05:48:54;99506.00;;;20.85;59.68
25947;BME280;13745;51.470;9.894;2022-08-03T05:51:39;99509.44;;;20.97;59.57
25947;BME280;13745;51.470;9.894;2022-08-03T05:54:25;99507.34;;;21.09;59.32
25947;BME280;13745;51.470;9.894;2022-08-03T05:57:11;99516.22;;;21.18;59.15
25947;BME280;13745;51.470;9.894;2022-08-03T05:59:58;99517.31;;;21.29;58.89
25947;BME280;13745;51.470;9.894;2022-08-03T06:02:44;99518.31;;;21.40;58.89
25947;BME280;13745;51.470;9.894;2022-08-03T06:05:30;99514.63;;;21.51;58.76
25947;BME280;13745;51.470;9.894;2022-08-03T06:08:20;99514.84;;;21.61;58.55
25947;BME280;13745;51.470;9.894;2022-08-03T06:11:06;99510.34;;;21.72;58.51
25947;BME280;13745;51.470;9.894;2022-08-03T06:13:52;99517.59;;;21.80;58.38
25947;BME280;13745;51.470;9.894;2022-08-03T06:16:39;99513.00;;;21.87;58.43
25947;BME280;13745;51.470;9.894;2022-08-03T06:19:25;99517.19;;;21.97;58.19
25947;BME280;13745;51.470;9.894;2022-08-03T06:22:11;99509.91;;;22.07;57.94
25947;BME280;13745;51.470;9.894;2022-08-03T06:24:57;99511.31;;;22.20;57.80
25947;BME280;13745;51.470;9.894;2022-08-03T06:27:43;99507.22;;;22.33;57.52
25947;BME280;13745;51.470;9.894;2022-08-03T06:30:29;99513.00;;;22.46;56.69
25947;BME280;13745;51.470;9.894;2022-08-03T06:33:16;99519.16;;;22.62;56.10
25947;BME280;13745;51.470;9.894;2022-08-03T06:36:02;99520.31;;;22.80;55.87
25947;BME280;13745;51.470;9.894;2022-08-03T06:38:48;99521.38;;;22.97;55.26
25947;BME280;13745;51.470;9.894;2022-08-03T06:41:34;99512.91;;;23.13;54.61
25947;BME280;13745;51.470;9.894;2022-08-03T06:44:21;99516.28;;;23.28;54.03
25947;BME280;13745;51.470;9.894;2022-08-03T06:47:08;99527.59;;;23.42;53.47
25947;BME280;13745;51.470;9.894;2022-08-03T06:49:55;99526.25;;;23.58;53.03
25947;BME280;13745;51.470;9.894;2022-08-03T06:52:41;99521.72;;;23.76;52.30
25947;BME280;13745;51.470;9.894;2022-08-03T06:55:27;99523.06;;;23.88;51.99
25947;BME280;13745;51.470;9.894;2022-08-03T06:58:13;99534.00;;;24.07;51.65
25947;BME280;13745;51.470;9.894;2022-08-03T07:00:59;99524.28;;;24.23;51.24
25947;BME280;13745;51.470;9.894;2022-08-03T07:03:45;99524.03;;;24.38;50.74
25947;BME280;13745;51.470;9.894;2022-08-03T07:06:32;99525.03;;;24.56;50.35
25947;BME280;13745;51.470;9.894;2022-08-03T07:09:18;99521.22;;;24.71;50.08
25947;BME280;13745;51.470;9.894;2022-08-03T07:12:04;99522.16;;;24.88;49.47
25947;BME280;13745;51.470;9.894;2022-08-03T07:14:50;99530.22;;;25.07;49.30
25947;BME280;13745;51.470;9.894;2022-08-03T07:17:36;99528.34;;;25.24;48.83
25947;BME280;13745;51.470;9.894;2022-08-03T07:20:22;99525.34;;;25.43;48.56
25947;BME280;13745;51.470;9.894;2022-08-03T07:23:09;99527.81;;;25.58;48.04
25947;BME280;13745;51.470;9.894;2022-08-03T07:25:55;99530.25;;;25.73;47.65
25947;BME280;13745;51.470;9.894;2022-08-03T07:28:41;99528.34;;;25.91;47.27
25947;BME280;13745;51.470;9.894;2022-08-03T07:31:27;99528.44;;;26.11;46.80
25947;BME280;13745;51.470;9.894;2022-08-03T07:34:13;99532.47;;;26.31;46.19
25947;BME280;13745;51.470;9.894;2022-08-03T07:36:59;99534.88;;;26.46;45.80
25947;BME280;13745;51.470;9.894;2022-08-03T07:39:47;99527.00;;;26.65;45.69
25947;BME280;13745;51.470;9.894;2022-08-03T07:42:32;99526.22;;;26.82;44.97
25947;BME280;13745;51.470;9.894;2022-08-03T07:45:18;99528.59;;;27.00;44.59
25947;BME280;13745;51.470;9.894;2022-08-03T07:48:04;99529.81;;;27.20;44.21
25947;BME280;13745;51.470;9.894;2022-08-03T07:50:50;99529.34;;;27.39;44.21
25947;BME280;13745;51.470;9.894;2022-08-03T07:53:36;99534.09;;;27.55;43.58
25947;BME280;13745;51.470;9.894;2022-08-03T07:56:24;99526.09;;;27.71;43.09
25947;BME280;13745;51.470;9.894;2022-08-03T07:59:09;99524.47;;;27.87;42.62
25947;BME280;13745;51.470;9.894;2022-08-03T08:01:55;99521.22;;;28.02;42.05
25947;BME280;13745;51.470;9.894;2022-08-03T08:04:41;99521.50;;;28.21;42.00
25947;BME280;13745;51.470;9.894;2022-08-03T08:07:27;99529.78;;;28.38;41.41
25947;BME280;13745;51.470;9.894;2022-08-03T08:10:13;99516.13;;;28.54;41.25
25947;BME280;13745;51.470;9.894;2022-08-03T08:13:00;99516.00;;;28.75;40.55
25947;BME280;13745;51.470;9.894;2022-08-03T08:15:46;99512.69;;;28.93;40.39
25947;BME280;13745;51.470;9.894;2022-08-03T08:18:32;99517.31;;;29.10;39.84
25947;BME280;13745;51.470;9.894;2022-08-03T08:21:18;99512.34;;;29.27;39.68
25947;BME280;13745;51.470;9.894;2022-08-03T08:24:05;99507.44;;;29.45;39.11
25947;BME280;13745;51.470;9.894;2022-08-03T08:26:50;99511.19;;;29.65;38.69
25947;BME280;13745;51.470;9.894;2022-08-03T08:29:37;99514.19;;;29.80;37.70
25947;BME280;13745;51.470;9.894;2022-08-03T08:32:23;99506.84;;;29.93;37.20
25947;BME280;13745;51.470;9.894;2022-08-03T08:35:10;99506.72;;;30.03;36.80
25947;BME280;13745;51.470;9.894;2022-08-03T08:37:58;99501.72;;;30.17;36.31
25947;BME280;13745;51.470;9.894;2022-08-03T08:40:44;99511.94;;;30.31;35.99
25947;BME280;13745;51.470;9.894;2022-08-03T08:43:30;99505.72;;;30.46;35.79
25947;BME280;13745;51.470;9.894;2022-08-03T08:46:18;99498.00;;;30.57;35.25
25947;BME280;13745;51.470;9.894;2022-08-03T08:49:07;99499.00;;;30.69;35.15
25947;BME280;13745;51.470;9.894;2022-08-03T08:51:54;99497.19;;;30.82;34.86
25947;BME280;13745;51.470;9.894;2022-08-03T08:54:43;99487.25;;;31.00;34.59
25947;BME280;13745;51.470;9.894;2022-08-03T08:57:33;99484.75;;;31.09;33.88
25947;BME280;13745;51.470;9.894;2022-08-03T09:00:18;99486.13;;;31.20;33.18
25947;BME280;13745;51.470;9.894;2022-08-03T09:03:06;99493.50;;;31.33;33.04
25947;BME280;13745;51.470;9.894;2022-08-03T09:05:53;99490.06;;;31.45;33.04
25947;BME280;13745;51.470;9.894;2022-08-03T09:08:38;99499.88;;;31.56;32.34
25947;BME280;13745;51.470;9.894;2022-08-03T09:11:24;99502.41;;;31.70;32.20
25947;BME280;13745;51.470;9.894;2022-08-03T09:14:10;99497.72;;;31.83;32.35
25947;BME280;13745;51.470;9.894;2022-08-03T09:16:57;99485.06;;;31.94;32.17
25947;BME280;13745;51.470;9.894;2022-08-03T09:20:03;99485.06;;;32.13;31.82
25947;BME280;13745;51.470;9.894;2022-08-03T09:22:51;99490.72;;;32.29;31.80
25947;BME280;13745;51.470;9.894;2022-08-03T09:25:40;99487.06;;;32.47;31.69
25947;BME280;13745;51.470;9.894;2022-08-03T09:28:33;99492.03;;;32.59;30.97
25947;BME280;13745;51.470;9.894;2022-08-03T09:31:28;99491.09;;;32.81;31.28
25947;BME280;13745;51.470;9.894;2022-08-03T09:34:16;99493.66;;;33.07;30.59
25947;BME280;13745;51.470;9.894;2022-08-03T09:37:12;99481.13;;;33.39;30.26
25947;BME280;13745;51.470;9.894;2022-08-03T09:39:59;99498.00;;;33.83;29.71
25947;BME280;13745;51.470;9.894;2022-08-03T09:42:55;99483.56;;;34.09;29.54
25947;BME280;13745;51.470;9.894;2022-08-03T09:45:43;99492.50;;;34.20;29.43
25947;BME280;13745;51.470;9.894;2022-08-03T09:48:30;99488.53;;;34.29;29.39
25947;BME280;13745;51.470;9.894;2022-08-03T09:51:23;99484.16;;;34.28;29.24
25947;BME280;13745;51.470;9.894;2022-08-03T09:54:10;99485.41;;;34.27;29.13
25947;BME280;13745;51.470;9.894;2022-08-03T09:56:56;99484.28;;;34.37;28.99
25947;BME280;13745;51.470;9.894;2022-08-03T09:59:42;99487.22;;;34.46;29.01
25947;BME280;13745;51.470;9.894;2022-08-03T10:02:28;99485.13;;;34.62;28.75
25947;BME280;13745;51.470;9.894;2022-08-03T10:05:14;99482.63;;;34.76;28.70
25947;BME280;13745;51.470;9.894;2022-08-03T10:08:13;99476.19;;;34.88;28.57
25947;BME280;13745;51.470;9.894;2022-08-03T10:11:00;99466.84;;;35.03;28.40
25947;BME280;13745;51.470;9.894;2022-08-03T10:13:46;99472.69;;;35.09;28.14
25947;BME280;13745;51.470;9.894;2022-08-03T10:16:34;99463.19;;;35.15;28.14
25947;BME280;13745;51.470;9.894;2022-08-03T10:19:20;99465.81;;;35.10;27.88
25947;BME280;13745;51.470;9.894;2022-08-03T10:22:09;99455.84;;;35.17;27.90
25947;BME280;13745;51.470;9.894;2022-08-03T10:24:59;99452.47;;;35.22;27.60
25947;BME280;13745;51.470;9.894;2022-08-03T10:27:46;99454.06;;;35.23;27.76
25947;BME280;13745;51.470;9.894;2022-08-03T10:30:37;99456.28;;;35.28;27.74
25947;BME280;13745;51.470;9.894;2022-08-03T10:33:27;99448.50;;;35.44;27.18
25947;BME280;13745;51.470;9.894;2022-08-03T10:36:13;99443.13;;;35.59;27.08
25947;BME280;13745;51.470;9.894;2022-08-03T10:39:01;99448.88;;;35.76;27.07
25947;BME280;13745;51.470;9.894;2022-08-03T10:41:48;99446.16;;;35.85;27.25
25947;BME280;13745;51.470;9.894;2022-08-03T10:44:38;99438.91;;;35.84;26.76
25947;BME280;13745;51.470;9.894;2022-08-03T10:47:26;99450.09;;;35.87;26.66
25947;BME280;13745;51.470;9.894;2022-08-03T10:50:12;99438.81;;;35.87;26.50
25947;BME280;13745;51.470;9.894;2022-08-03T10:53:00;99442.28;;;35.91;26.61
25947;BME280;13745;51.470;9.894;2022-08-03T10:55:46;99424.47;;;36.03;26.33
25947;BME280;13745;51.470;9.894;2022-08-03T10:58:50;99432.53;;;36.13;26.42
25947;BME280;13745;51.470;9.894;2022-08-03T11:01:52;99432.91;;;36.24;26.13
25947;BME280;13745;51.470;9.894;2022-08-03T11:04:38;99431.25;;;36.35;25.93
25947;BME280;13745;51.470;9.894;2022-08-03T11:07:25;99430.06;;;36.54;25.58
25947;BME280;13745;51.470;9.894;2022-08-03T11:10:28;99426.97;;;36.61;25.38
25947;BME280;13745;51.470;9.894;2022-08-03T11:13:16;99413.22;;;36.80;25.32
25947;BME280;13745;51.470;9.894;2022-08-03T11:16:17;99419.03;;;36.77;25.47
25947;BME280;13745;51.470;9.894;2022-08-03T11:19:06;99419.81;;;36.77;24.89
25947;BME280;13745;51.470;9.894;2022-08-03T11:21:56;99414.97;;;36.78;25.31
25947;BME280;13745;51.470;9.894;2022-08-03T11:25:09;99419.22;;;36.82;24.96
25947;BME280;13745;51.470;9.894;2022-08-03T11:28:24;99415.97;;;37.10;24.79
25947;BME280;13745;51.470;9.894;2022-08-03T11:31:42;99416.28;;;37.12;24.16
25947;BME280;13745;51.470;9.894;2022-08-03T11:34:29;99421.63;;;37.10;24.65
25947;BME280;13745;51.470;9.894;2022-08-03T11:37:23;99413.59;;;37.00;24.51
25947;BME280;13745;51.470;9.894;2022-08-03T11:40:33;99413.47;;;37.12;24.33
25947;BME280;13745;51.470;9.894;2022-08-03T11:43:43;99411.59;;;37.53;24.17
25947;BME280;13745;51.470;9.894;2022-08-03T11:46:36;99409.03;;;37.99;23.99
25947;BME280;13745;51.470;9.894;2022-08-03T11:49:22;99407.03;;;38.49;23.18
25947;BME280;13745;51.470;9.894;2022-08-03T11:52:10;99410.28;;;38.88;22.85
25947;BME280;13745;51.470;9.894;2022-08-03T11:54:56;99411.56;;;38.87;23.05
25947;BME280;13745;51.470;9.894;2022-08-03T11:57:42;99411.94;;;38.72;22.80
25947;BME280;13745;51.470;9.894;2022-08-03T12:00:31;99403.53;;;38.54;23.02
25947;BME280;13745;51.470;9.894;2022-08-03T12:03:18;99399.75;;;38.57;22.86
25947;BME280;13745;51.470;9.894;2022-08-03T12:06:08;99389.97;;;38.81;22.73
25947;BME280;13745;51.470;9.894;2022-08-03T12:08:55;99398.72;;;39.01;22.49
25947;BME280;13745;51.470;9.894;2022-08-03T12:11:41;99396.75;;;39.06;22.84
25947;BME280;13745;51.470;9.894;2022-08-03T12:14:28;99407.94;;;39.10;22.58
25947;BME280;13745;51.470;9.894;2022-08-03T12:17:14;99404.63;;;39.11;22.54
25947;BME280;13745;51.470;9.894;2022-08-03T12:20:00;99390.38;;;39.20;22.39
25947;BME280;13745;51.470;9.894;2022-08-03T12:22:46;99383.09;;;39.42;22.14
25947;BME280;13745;51.470;9.894;2022-08-03T12:25:34;99372.81;;;39.68;22.38
25947;BME280;13745;51.470;9.894;2022-08-03T12:28:20;99391.91;;;39.81;22.47
25947;BME280;13745;51.470;9.894;2022-08-03T12:31:08;99382.72;;;39.86;22.28
25947;BME280;13745;51.470;9.894;2022-08-03T12:33:55;99378.16;;;39.66;21.93
25947;BME280;13745;51.470;9.894;2022-08-03T12:36:49;99383.63;;;39.55;21.80
25947;BME280;13745;51.470;9.894;2022-08-03T12:39:35;99392.25;;;39.60;21.90
25947;BME280;13745;51.470;9.894;2022-08-03T12:42:29;99383.28;;;39.76;21.82
25947;BME280;13745;51.470;9.894;2022-08-03T12:45:22;99371.06;;;39.84;21.69
25947;BME280;13745;51.470;9.894;2022-08-03T12:48:09;99377.03;;;39.72;21.83
25947;BME280;13745;51.470;9.894;2022-08-03T12:51:07;99372.44;;;39.37;21.83
25947;BME280;13745;51.470;9.894;2022-08-03T12:53:53;99379.16;;;39.03;22.27
25947;BME280;13745;51.470;9.894;2022-08-03T12:56:57;99366.81;;;38.91;22.31
25947;BME280;13745;51.470;9.894;2022-08-03T12:59:45;99353.31;;;38.78;22.50
25947;BME280;13745;51.470;9.894;2022-08-03T13:02:31;99364.72;;;38.69;22.71
25947;BME280;13745;51.470;9.894;2022-08-03T13:05:17;99368.25;;;38.55;22.64
25947;BME280;13745;51.470;9.894;2022-08-03T13:08:03;99362.38;;;38.35;22.62
25947;BME280;13745;51.470;9.894;2022-08-03T13:10:49;99359.28;;;38.25;22.76
25947;BME280;13745;51.470;9.894;2022-08-03T13:13:39;99351.28;;;38.14;22.74
25947;BME280;13745;51.470;9.894;2022-08-03T13:16:26;99358.41;;;38.10;22.76
25947;BME280;13745;51.470;9.894;2022-08-03T13:19:12;99359.34;;;37.98;23.03
25947;BME280;13745;51.470;9.894;2022-08-03T13:21:58;99364.41;;;37.94;23.04
25947;BME280;13745;51.470;9.894;2022-08-03T13:24:48;99368.53;;;37.76;23.29
25947;BME280;13745;51.470;9.894;2022-08-03T13:27:34;99355.38;;;37.46;23.24
25947;BME280;13745;51.470;9.894;2022-08-03T13:30:20;99361.03;;;37.29;23.56
25947;BME280;13745;51.470;9.894;2022-08-03T13:33:07;99352.69;;;37.17;23.33
25947;BME280;13745;51.470;9.894;2022-08-03T13:35:53;99354.72;;;37.16;23.82
25947;BME280;13745;51.470;9.894;2022-08-03T13:38:38;99361.50;;;37.19;23.45
25947;BME280;13745;51.470;9.894;2022-08-03T13:41:24;99349.72;;;37.29;23.70
25947;BME280;13745;51.470;9.894;2022-08-03T13:44:10;99344.69;;;37.33;23.28
25947;BME280;13745;51.470;9.894;2022-08-03T13:46:56;99348.44;;;37.39;23.46
25947;BME280;13745;51.470;9.894;2022-08-03T13:49:45;99340.59;;;37.42;23.32
25947;BME280;13745;51.470;9.894;2022-08-03T13:52:33;99336.19;;;37.42;23.54
25947;BME280;13745;51.470;9.894;2022-08-03T13:55:19;99333.88;;;37.22;23.36
25947;BME280;13745;51.470;9.894;2022-08-03T13:58:05;99333.88;;;37.22;23.21
25947;BME280;13745;51.470;9.894;2022-08-03T14:00:51;99329.59;;;37.09;23.72
25947;BME280;13745;51.470;9.894;2022-08-03T14:03:37;99337.28;;;37.00;23.66
25947;BME280;13745;51.470;9.894;2022-08-03T14:06:24;99322.06;;;36.97;23.79
25947;BME280;13745;51.470;9.894;2022-08-03T14:09:10;99329.28;;;36.98;24.05
25947;BME280;13745;51.470;9.894;2022-08-03T14:11:56;99323.16;;;36.91;23.68
25947;BME280;13745;51.470;9.894;2022-08-03T14:14:42;99326.44;;;36.90;23.82
25947;BME280;13745;51.470;9.894;2022-08-03T14:17:28;99334.91;;;36.81;23.26
25947;BME280;13745;51.470;9.894;2022-08-03T14:20:14;99334.91;;;36.81;23.54
25947;BME280;13745;51.470;9.894;2022-08-03T14:23:01;99322.03;;;36.80;23.17
25947;BME280;13745;51.470;9.894;2022-08-03T14:25:47;99328.00;;;36.73;23.71
25947;BME280;13745;51.470;9.894;2022-08-03T14:28:33;99321.41;;;36.76;23.75
25947;BME280;13745;51.470;9.894;2022-08-03T14:31:18;99312.31;;;36.81;23.65
25947;BME280;13745;51.470;9.894;2022-08-03T14:34:04;99312.31;;;36.81;23.25
25947;BME280;13745;51.470;9.894;2022-08-03T14:36:50;99319.84;;;36.75;23.68
25947;BME280;13745;51.470;9.894;2022-08-03T14:39:37;99308.25;;;36.73;23.75
25947;BME280;13745;51.470;9.894;2022-08-03T14:42:23;99310.69;;;36.62;23.89
25947;BME280;13745;51.470;9.894;2022-08-03T14:45:10;99309.75;;;36.48;24.11
25947;BME280;13745;51.470;9.894;2022-08-03T14:47:56;99303.44;;;36.44;23.84
25947;BME280;13745;51.470;9.894;2022-08-03T14:50:43;99289.66;;;36.46;24.43